Time;durP1;ratioP1;P1;durP2;ratioP2;P2;SDS_P1;SDS_P2;PMS_P1;PMS_P2;Temp;Humidity;BMP_temperature;BMP_pressure;BME280_temperature;BME280_humidity;BME280_pressure;Samples;Min_cycle;Max_cycle;Signal;HPM_P1;HPM_P2
2022/09/09 00:02:24;;;;;;;2.50;2.30;;;25.20;59.00;;;;;;5107053;28;20015;-61
2022/09/09 00:05:12;;;;;;;2.42;2.22;;;25.20;59.00;;;;;;5085441;28;20032;-61
2022/09/09 00:07:51;;;;;;;2.30;2.10;;;25.20;59.00;;;;;;5106760;28;20097;-61
2022/09/09 00:10:23;;;;;;;2.63;2.42;;;25.20;59.00;;;;;;5106879;28;20326;-61
2022/09/09 00:13:01;;;;;;;3.63;2.70;;;25.20;59.00;;;;;;5106825;28;20034;-61
2022/09/09 00:15:33;;;;;;;;;;;25.20;59.00;;;;;;5107255;28;20088;-61
2022/09/09 00:18:29;;;;;;;2.42;2.22;;;25.20;59.00;;;;;;5106562;28;19911;-62
2022/09/09 00:21:06;;;;;;;2.60;2.40;;;25.20;59.00;;;;;;5106691;28;20196;-60
2022/09/09 00:23:46;;;;;;;3.00;2.70;;;25.20;59.00;;;;;;5106698;28;20210;-61
2022/09/09 00:26:18;;;;;;;2.72;2.53;;;25.20;59.00;;;;;;5106609;28;20027;-63
2022/09/09 00:29:07;;;;;;;3.88;2.63;;;25.20;59.00;;;;;;5106527;28;20020;-61
2022/09/09 00:31:33;;;;;;;3.72;2.47;;;25.20;59.00;;;;;;5059445;28;20100;-61
2022/09/09 00:34:09;;;;;;;3.00;2.80;;;25.20;59.00;;;;;;5106413;28;20054;-62
2022/09/09 00:36:36;;;;;;;4.60;1.88;;;25.20;59.00;;;;;;5106337;28;20019;-61
2022/09/09 00:39:03;;;;;;;2.78;2.50;;;25.20;59.00;;;;;;5106385;28;20219;-62
2022/09/09 00:41:52;;;;;;;2.75;2.55;;;25.20;59.00;;;;;;5106256;28;20030;-62
2022/09/09 00:44:36;;;;;;;2.30;2.10;;;25.20;59.00;;;;;;5106155;28;20207;-62
2022/09/09 00:47:05;;;;;;;2.80;2.50;;;25.10;59.00;;;;;;5106226;28;20061;-62
2022/09/09 00:49:47;;;;;;;2.40;2.20;;;25.20;59.00;;;;;;5106110;28;20043;-60
2022/09/09 00:52:30;;;;;;;3.17;2.60;;;25.10;59.00;;;;;;5106117;28;20020;-62
2022/09/09 00:55:25;;;;;;;3.50;2.50;;;25.20;59.00;;;;;;5087998;28;20027;-62
2022/09/09 00:57:52;;;;;;;2.92;2.63;;;25.20;59.00;;;;;;5105921;28;20019;-61
2022/09/09 01:00:20;;;;;;;2.80;2.30;;;25.10;59.00;;;;;;5105961;28;20057;-62
2022/09/09 01:03:24;;;;;;;3.25;2.20;;;25.10;59.00;;;;;;5105837;28;20027;-62
2022/09/09 01:06:24;;;;;;;2.40;2.20;;;25.10;59.00;;;;;;5087257;28;20022;-62
2022/09/09 01:09:15;;;;;;;2.97;2.78;;;25.10;59.00;;;;;;5105732;28;20035;-62
2022/09/09 01:12:08;;;;;;;2.50;2.17;;;25.10;59.00;;;;;;5105720;28;20212;-61
2022/09/09 01:14:34;;;;;;;3.17;2.83;;;25.10;59.00;;;;;;5105703;28;20042;-64
2022/09/09 01:17:17;;;;;;;3.35;2.83;;;25.10;59.00;;;;;;5105498;28;20312;-61
2022/09/09 01:19:43;;;;;;;2.95;2.55;;;25.10;59.00;;;;;;5105564;28;20018;-61
2022/09/09 01:22:45;;;;;;;2.33;2.13;;;25.10;59.00;;;;;;5105470;28;20024;-61
2022/09/09 01:25:40;;;;;;;2.70;2.47;;;25.10;59.00;;;;;;5105458;28;20020;-61
2022/09/09 01:28:11;;;;;;;2.30;2.08;;;25.10;59.00;;;;;;5015903;28;20293;-62
2022/09/09 01:30:40;;;;;;;2.92;2.22;;;25.10;59.00;;;;;;5105308;28;20242;-61
2022/09/09 01:33:13;;;;;;;2.58;2.38;;;25.10;59.00;;;;;;5105278;28;20036;-61
2022/09/09 01:36:08;;;;;;;2.83;2.53;;;25.10;59.00;;;;;;5105216;28;20012;-61
2022/09/09 01:38:35;;;;;;;2.90;2.03;;;25.10;59.00;;;;;;5091576;28;20048;-62
2022/09/09 01:41:02;;;;;;;3.50;2.70;;;25.10;59.00;;;;;;5087036;28;20039;-62
2022/09/09 01:43:28;;;;;;;2.67;2.30;;;25.00;58.90;;;;;;5105049;28;20030;-62
2022/09/09 01:45:58;;;;;;;3.33;2.95;;;25.10;59.00;;;;;;5105009;28;20224;-62
2022/09/09 01:48:25;;;;;;;2.53;2.33;;;25.00;58.90;;;;;;5104940;28;20020;-62
2022/09/09 01:50:51;;;;;;;2.88;2.60;;;25.10;59.00;;;;;;5104878;28;20061;-61
2022/09/09 01:53:18;;;;;;;3.17;2.28;;;25.10;59.00;;;;;;5104864;28;20020;-62
2022/09/09 01:55:58;;;;;;;2.95;2.20;;;25.10;59.00;;;;;;5104846;28;20015;-62
2022/09/09 01:58:45;;;;;;;1.88;1.77;;;25.10;59.00;;;;;;5104814;28;20101;-62
2022/09/09 02:01:29;;;;;;;3.17;2.60;;;25.10;59.00;;;;;;5104726;28;20083;-61
2022/09/09 02:03:57;;;;;;;2.75;2.55;;;25.10;59.00;;;;;;5104693;28;20016;-60
2022/09/09 02:06:38;;;;;;;3.05;2.30;;;25.10;59.00;;;;;;5104371;28;20051;-61
2022/09/09 02:09:06;;;;;;;2.42;2.22;;;25.10;59.00;;;;;;5104630;28;20130;-61
2022/09/09 02:11:33;;;;;;;2.50;2.30;;;25.00;59.00;;;;;;5104550;28;20016;-63
2022/09/09 02:14:13;;;;;;;2.90;2.60;;;25.00;59.00;;;;;;5104474;28;20030;-61
2022/09/09 02:16:44;;;;;;;2.53;2.33;;;25.00;59.00;;;;;;5104416;28;20303;-61
2022/09/09 02:19:16;;;;;;;2.50;2.30;;;25.00;59.00;;;;;;5103689;28;20020;-61
2022/09/09 02:21:44;;;;;;;2.85;2.42;;;25.00;59.00;;;;;;5104399;28;20304;-63
2022/09/09 02:24:14;;;;;;;2.55;2.35;;;25.00;59.60;;;;;;5086297;28;20226;-63
2022/09/09 02:26:43;;;;;;;3.15;2.45;;;25.10;59.10;;;;;;5104279;28;20019;-63
2022/09/09 02:29:15;;;;;;;2.65;2.38;;;25.00;59.00;;;;;;5104202;28;20024;-63
2022/09/09 02:31:44;;;;;;;2.63;2.42;;;25.00;59.00;;;;;;5104225;28;20065;-61
2022/09/09 02:34:12;;;;;;;3.85;3.00;;;25.00;59.00;;;;;;5104129;28;20027;-62
2022/09/09 02:36:40;;;;;;;;;;;25.00;59.00;;;;;;5104468;28;20101;-62
2022/09/09 02:39:09;;;;;;;2.67;2.45;;;25.00;59.00;;;;;;5104118;28;19922;-62
2022/09/09 02:41:38;;;;;;;2.40;2.20;;;25.00;59.00;;;;;;5104010;28;20208;-62
2022/09/09 02:44:30;;;;;;;2.58;2.13;;;25.00;59.00;;;;;;5104028;28;20062;-63
2022/09/09 02:47:04;;;;;;;3.15;2.08;;;25.00;59.00;;;;;;5099780;28;20117;-63
2022/09/09 02:49:51;;;;;;;2.20;2.00;;;25.00;59.00;;;;;;5103962;28;20304;-63
2022/09/09 02:52:33;;;;;;;2.30;2.08;;;25.00;59.00;;;;;;5103907;28;20024;-62
2022/09/09 02:55:07;;;;;;;2.40;2.20;;;25.00;59.00;;;;;;5103825;28;20019;-62
2022/09/09 02:57:34;;;;;;;2.25;2.05;;;25.00;59.00;;;;;;5103678;28;20028;-62
2022/09/09 03:00:01;;;;;;;3.00;2.22;;;25.00;59.00;;;;;;5103744;28;20015;-62
2022/09/09 03:02:27;;;;;;;2.40;2.20;;;25.00;59.00;;;;;;5085710;28;20257;-61
2022/09/09 03:04:53;;;;;;;2.42;2.22;;;25.00;59.00;;;;;;5103746;28;20030;-60
2022/09/09 03:07:19;;;;;;;4.35;2.60;;;25.00;59.00;;;;;;5103493;28;20059;-62
2022/09/09 03:09:45;;;;;;;2.40;2.20;;;25.00;59.00;;;;;;5103664;28;20020;-61
2022/09/09 03:12:11;;;;;;;2.55;2.35;;;25.00;59.00;;;;;;5103651;28;20050;-61
2022/09/09 03:14:38;;;;;;;2.72;2.10;;;25.00;59.00;;;;;;5103614;28;20020;-61
2022/09/09 03:17:05;;;;;;;2.95;2.22;;;25.00;59.00;;;;;;5103549;28;20189;-61
2022/09/09 03:19:31;;;;;;;2.83;2.47;;;25.00;59.10;;;;;;5103616;28;20307;-61
2022/09/09 03:22:00;;;;;;;2.35;2.05;;;25.00;59.00;;;;;;5103565;28;20054;-62
2022/09/09 03:24:26;;;;;;;2.22;2.03;;;25.00;59.00;;;;;;5103527;28;20027;-62
2022/09/09 03:26:52;;;;;;;2.45;2.25;;;25.00;59.00;;;;;;5103517;28;20220;-62
2022/09/09 03:29:18;;;;;;;2.42;2.10;;;25.00;59.00;;;;;;5104914;28;20049;-62
2022/09/09 03:31:44;;;;;;;2.95;2.60;;;25.00;59.00;;;;;;5107637;28;20327;-62
2022/09/09 03:34:10;;;;;;;2.47;2.15;;;25.00;59.00;;;;;;5107609;28;20020;-62
2022/09/09 03:36:36;;;;;;;2.30;2.10;;;25.00;59.00;;;;;;5107448;28;20016;-62
2022/09/09 03:39:03;;;;;;;3.00;2.78;;;25.00;59.00;;;;;;5107542;28;20180;-62
2022/09/09 03:41:29;;;;;;;1.98;1.80;;;25.00;59.00;;;;;;5107442;28;20035;-61
2022/09/09 03:43:55;;;;;;;2.85;2.05;;;25.00;59.00;;;;;;5107379;28;20016;-62
2022/09/09 03:46:24;;;;;;;2.33;2.13;;;25.00;59.00;;;;;;5107298;28;20023;-62
2022/09/09 03:48:52;;;;;;;;;;;25.00;59.00;;;;;;5108085;28;20242;-62
2022/09/09 03:51:18;;;;;;;2.78;2.58;;;25.00;59.00;;;;;;5107274;28;19965;-62
2022/09/09 03:53:44;;;;;;;2.22;2.03;;;25.00;59.10;;;;;;5107207;28;20254;-62
2022/09/09 03:56:10;;;;;;;2.45;2.25;;;25.00;59.10;;;;;;5107090;28;20020;-62
2022/09/09 03:58:37;;;;;;;2.40;2.20;;;25.00;59.10;;;;;;5107121;28;20008;-62
2022/09/09 04:01:04;;;;;;;2.35;2.15;;;25.00;59.00;;;;;;5107034;28;20070;-62
2022/09/09 04:03:31;;;;;;;3.08;2.08;;;25.00;59.10;;;;;;5107020;28;20012;-62
2022/09/09 04:05:59;;;;;;;2.30;2.10;;;25.00;59.00;;;;;;5106950;28;20031;-62
2022/09/09 04:08:25;;;;;;;3.08;2.35;;;25.00;59.00;;;;;;5106856;28;20343;-62
2022/09/09 04:10:52;;;;;;;2.55;2.35;;;25.00;59.10;;;;;;5107137;28;20020;-62
2022/09/09 04:13:19;;;;;;;2.20;1.98;;;25.00;59.00;;;;;;5106869;28;20012;-62
2022/09/09 04:15:51;;;;;;;2.08;1.95;;;24.90;59.00;;;;;;5107072;28;20020;-62
2022/09/09 04:18:17;;;;;;;2.05;1.95;;;24.90;59.00;;;;;;5106691;28;20039;-62
2022/09/09 04:20:43;;;;;;;2.30;2.08;;;24.90;59.00;;;;;;5106706;28;20016;-63
2022/09/09 04:23:09;;;;;;;2.53;2.33;;;24.90;59.00;;;;;;5106679;28;20051;-62
2022/09/09 04:25:35;;;;;;;2.60;2.40;;;24.90;59.00;;;;;;5106606;28;20299;-62
2022/09/09 04:28:01;;;;;;;2.30;2.10;;;24.90;59.00;;;;;;5106505;28;20032;-60
2022/09/09 04:30:27;;;;;;;2.40;2.20;;;24.90;59.00;;;;;;5106479;28;20019;-62
2022/09/09 04:32:53;;;;;;;2.72;2.22;;;24.90;59.00;;;;;;5106406;28;20208;-63
2022/09/09 04:35:19;;;;;;;1.90;1.80;;;24.90;59.00;;;;;;5106382;28;20023;-62
2022/09/09 04:37:46;;;;;;;2.83;2.10;;;24.90;59.00;;;;;;5106290;28;20042;-62
2022/09/09 04:40:11;;;;;;;1.95;1.85;;;24.90;59.00;;;;;;5106345;28;20130;-62
2022/09/09 04:42:39;;;;;;;2.45;2.25;;;24.90;59.00;;;;;;5105654;28;20028;-62
2022/09/09 04:45:06;;;;;;;2.90;2.17;;;24.90;59.00;;;;;;5106258;28;20035;-62
2022/09/09 04:47:32;;;;;;;2.42;2.22;;;24.90;59.00;;;;;;5106426;28;20027;-63
2022/09/09 04:49:58;;;;;;;2.38;2.17;;;24.90;59.00;;;;;;5106125;28;20024;-62
2022/09/09 04:52:24;;;;;;;2.50;2.30;;;24.90;58.90;;;;;;5106068;28;20043;-63
2022/09/09 04:54:50;;;;;;;2.15;2.05;;;24.90;58.90;;;;;;5106050;28;20307;-63
2022/09/09 04:57:16;;;;;;;2.15;1.95;;;24.90;59.00;;;;;;5105907;28;20024;-62
2022/09/09 04:59:42;;;;;;;1.80;1.70;;;24.90;59.00;;;;;;5105954;28;20046;-62
2022/09/09 05:02:08;;;;;;;2.83;2.20;;;24.90;59.00;;;;;;5105890;28;20208;-62
2022/09/09 05:04:34;;;;;;;2.33;2.13;;;24.90;59.00;;;;;;5105876;28;20078;-63
2022/09/09 05:06:59;;;;;;;2.10;1.90;;;24.90;59.00;;;;;;5105663;28;20051;-63
2022/09/09 05:09:25;;;;;;;2.40;2.13;;;24.90;59.00;;;;;;5105747;28;20039;-62
2022/09/09 05:11:51;;;;;;;2.28;2.08;;;24.90;59.00;;;;;;5105688;28;20358;-62
2022/09/09 05:14:17;;;;;;;1.88;1.77;;;24.90;59.00;;;;;;5105634;28;20016;-62
2022/09/09 05:16:44;;;;;;;2.42;2.22;;;24.90;59.00;;;;;;5105565;28;20027;-62
2022/09/09 05:19:11;;;;;;;2.20;2.00;;;24.90;59.00;;;;;;5105572;28;20012;-63
2022/09/09 05:21:37;;;;;;;1.88;1.77;;;24.90;59.00;;;;;;5105753;28;20024;-63
2022/09/09 05:24:03;;;;;;;3.10;1.85;;;24.90;59.00;;;;;;5105456;28;20027;-61
2022/09/09 05:26:29;;;;;;;2.60;2.40;;;24.90;59.00;;;;;;5105420;28;20084;-62
2022/09/09 05:28:55;;;;;;;2.13;1.92;;;24.90;58.90;;;;;;5105358;28;20129;-62
2022/09/09 05:31:21;;;;;;;2.30;2.10;;;24.90;58.90;;;;;;5105551;28;20079;-63
2022/09/09 05:33:49;;;;;;;2.60;2.40;;;24.90;58.90;;;;;;5105515;28;20062;-64
2022/09/09 05:36:18;;;;;;;2.35;2.15;;;24.90;58.90;;;;;;5105087;28;20050;-62
2022/09/09 05:38:45;;;;;;;2.45;2.25;;;24.90;58.90;;;;;;5105440;28;20066;-62
2022/09/09 05:41:12;;;;;;;2.40;2.20;;;24.90;58.90;;;;;;5105096;28;20016;-63
2022/09/09 05:43:39;;;;;;;2.20;2.00;;;24.90;58.90;;;;;;5105347;28;20051;-62
2022/09/09 05:46:07;;;;;;;2.45;2.25;;;24.90;58.90;;;;;;5105021;28;20024;-61
2022/09/09 05:48:38;;;;;;;2.40;2.20;;;24.90;58.90;;;;;;5104952;28;20016;-61
2022/09/09 05:51:09;;;;;;;2.78;2.20;;;24.90;58.90;;;;;;5105006;28;20012;-62
2022/09/09 05:53:35;;;;;;;2.25;2.05;;;24.90;58.90;;;;;;5105167;28;20038;-62
2022/09/09 05:56:10;;;;;;;2.15;1.95;;;24.90;58.90;;;;;;5104761;28;20050;-61
2022/09/09 05:58:37;;;;;;;2.10;1.95;;;24.90;58.80;;;;;;5104787;28;20027;-62
2022/09/09 06:01:11;;;;;;;1.85;1.75;;;24.90;58.80;;;;;;5104800;28;20239;-60
2022/09/09 06:03:39;;;;;;;2.22;2.03;;;24.90;59.40;;;;;;5104719;28;20042;-61
2022/09/09 06:06:10;;;;;;;2.13;1.92;;;24.90;58.80;;;;;;5104682;28;20016;-61
2022/09/09 06:08:38;;;;;;;2.47;2.28;;;24.90;58.80;;;;;;5104536;28;20058;-62
2022/09/09 06:11:11;;;;;;;;;;;24.90;58.80;;;;;;5105029;28;20203;-61
2022/09/09 06:13:38;;;;;;;2.17;2.00;;;24.90;58.80;;;;;;5104465;28;19900;-62
2022/09/09 06:16:11;;;;;;;1.75;1.65;;;24.90;58.90;;;;;;5104434;28;20015;-62
2022/09/09 06:18:38;;;;;;;2.15;1.95;;;24.90;58.90;;;;;;5104503;28;20207;-62
2022/09/09 06:21:06;;;;;;;3.30;2.05;;;24.90;58.90;;;;;;5104380;28;20038;-63
2022/09/09 06:23:35;;;;;;;;;;;24.90;58.90;;;;;;5104861;28;20380;-62
2022/09/09 06:26:06;;;;;;;3.38;1.85;;;24.90;58.90;;;;;;5104297;28;19923;-62
2022/09/09 06:28:33;;;;;;;2.28;1.80;;;24.90;58.90;;;;;;5104252;28;20016;-62
2022/09/09 06:31:00;;;;;;;2.17;1.98;;;24.90;58.90;;;;;;5104235;28;20027;-63
2022/09/09 06:33:26;;;;;;;2.20;2.00;;;24.90;58.90;;;;;;5104484;28;20040;-63
2022/09/09 06:35:53;;;;;;;1.48;1.38;;;24.90;58.90;;;;;;5104193;28;20282;-62
2022/09/09 06:38:19;;;;;;;2.13;1.92;;;24.90;58.90;;;;;;5104013;28;20020;-62
2022/09/09 06:40:52;;;;;;;2.22;2.03;;;24.90;58.90;;;;;;5104044;28;20020;-60
2022/09/09 06:43:19;;;;;;;3.00;2.30;;;24.90;58.90;;;;;;5104013;28;20061;-62
2022/09/09 06:46:00;;;;;;;1.85;1.75;;;24.90;58.90;;;;;;5103974;28;20057;-62
2022/09/09 06:48:27;;;;;;;2.00;1.90;;;24.90;58.80;;;;;;5104000;28;20016;-62
2022/09/09 06:51:13;;;;;;;2.83;1.75;;;24.90;58.80;;;;;;5103913;28;20020;-63
2022/09/09 06:53:40;;;;;;;1.95;1.80;;;24.90;59.40;;;;;;5103883;28;20028;-61
2022/09/09 06:56:24;;;;;;;1.97;1.87;;;24.90;58.90;;;;;;5103797;28;20351;-62
2022/09/09 06:58:54;;;;;;;2.03;1.92;;;24.90;58.90;;;;;;5103775;28;20016;-62
2022/09/09 07:01:28;;;;;;;1.98;1.85;;;24.90;58.80;;;;;;5103776;28;20020;-62
2022/09/09 07:03:55;;;;;;;2.58;2.38;;;24.90;58.80;;;;;;5103389;28;20016;-62
2022/09/09 07:06:30;;;;;;;2.17;1.77;;;24.90;58.80;;;;;;5103585;28;20020;-61
2022/09/09 07:09:01;;;;;;;1.90;1.80;;;24.90;58.80;;;;;;5103702;28;20060;-62
2022/09/09 07:11:28;;;;;;;1.77;1.67;;;24.90;58.80;;;;;;5103664;28;20095;-60
2022/09/09 07:13:56;;;;;;;2.17;1.70;;;24.90;58.70;;;;;;5103672;28;20046;-62
2022/09/09 07:16:25;;;;;;;2.35;2.13;;;25.00;58.70;;;;;;5103500;28;20319;-62
2022/09/09 07:18:52;;;;;;;2.05;1.85;;;25.00;58.70;;;;;;5103592;28;20016;-62
2022/09/09 07:21:20;;;;;;;1.60;1.50;;;25.00;58.60;;;;;;5103583;28;20020;-62
2022/09/09 07:23:46;;;;;;;2.67;2.47;;;25.00;58.60;;;;;;5103542;28;20016;-63
2022/09/09 07:26:14;;;;;;;2.30;2.05;;;25.00;58.60;;;;;;5085569;28;20045;-63
2022/09/09 07:28:41;;;;;;;2.08;1.90;;;25.00;58.60;;;;;;5103471;28;20020;-61
2022/09/09 07:31:13;;;;;;;2.53;1.83;;;25.00;58.60;;;;;;5103486;28;20016;-61
2022/09/09 07:33:40;;;;;;;1.90;1.80;;;25.00;58.60;;;;;;5103493;28;20008;-61
2022/09/09 07:36:29;;;;;;;1.90;1.80;;;25.00;58.50;;;;;;5103334;28;20020;-62
2022/09/09 07:38:57;;;;;;;2.50;1.73;;;25.10;58.50;;;;;;5103428;28;20252;-61
2022/09/09 07:41:25;;;;;;;;;;;25.00;58.40;;;;;;5103812;28;20020;-61
2022/09/09 07:43:51;;;;;;;3.05;1.98;;;25.10;58.40;;;;;;5103409;28;19900;-62
2022/09/09 07:46:19;;;;;;;2.13;2.00;;;25.10;58.40;;;;;;5103314;28;20023;-63
2022/09/09 07:48:46;;;;;;;1.88;1.77;;;25.10;58.30;;;;;;5103362;28;20265;-61
2022/09/09 07:51:17;;;;;;;2.15;1.98;;;25.20;58.30;;;;;;5103354;28;20020;-62
2022/09/09 07:53:43;;;;;;;2.17;2.08;;;25.20;58.20;;;;;;5103312;28;20073;-61
2022/09/09 07:56:12;;;;;;;2.08;1.92;;;25.20;58.30;;;;;;5103197;28;20023;-62
2022/09/09 07:58:39;;;;;;;2.28;1.98;;;25.20;58.20;;;;;;5103247;28;20016;-62
2022/09/09 08:01:16;;;;;;;2.07;1.87;;;25.10;58.20;;;;;;5103547;28;20012;-62
2022/09/09 08:03:44;;;;;;;2.10;2.00;;;25.10;58.30;;;;;;5103180;28;20540;-63
2022/09/09 08:06:10;;;;;;;2.40;2.20;;;25.10;58.40;;;;;;5103514;28;20023;-62
2022/09/09 08:08:36;;;;;;;2.03;1.92;;;25.10;58.40;;;;;;5102880;28;20111;-63
2022/09/09 08:11:08;;;;;;;2.08;1.88;;;25.10;58.40;;;;;;5103411;28;20052;-63
2022/09/09 08:13:38;;;;;;;1.67;1.58;;;25.10;58.50;;;;;;5103149;28;20051;-62
2022/09/09 08:16:17;;;;;;;2.22;2.03;;;25.10;59.10;;;;;;5103671;28;20075;-61
2022/09/09 08:18:44;;;;;;;2.22;1.75;;;25.00;58.40;;;;;;5106804;28;20023;-61
2022/09/09 08:21:13;;;;;;;2.13;1.70;;;25.10;58.50;;;;;;5106755;28;20230;-62
2022/09/09 08:23:43;;;;;;;1.92;1.83;;;25.10;58.50;;;;;;5106675;28;20361;-61
2022/09/09 08:26:14;;;;;;;1.73;1.63;;;25.10;58.50;;;;;;5106649;28;20204;-63
2022/09/09 08:28:41;;;;;;;2.03;1.65;;;25.10;58.50;;;;;;5106576;28;20016;-63
2022/09/09 08:31:11;;;;;;;1.70;1.60;;;25.10;58.50;;;;;;5106482;28;20054;-61
2022/09/09 08:33:38;;;;;;;2.22;2.03;;;25.10;58.50;;;;;;5106765;28;20020;-62
2022/09/09 08:36:06;;;;;;;2.35;2.05;;;25.10;58.50;;;;;;5106360;28;20016;-63
2022/09/09 08:38:33;;;;;;;2.10;2.00;;;25.10;58.50;;;;;;5106440;28;20016;-63
2022/09/09 08:41:17;;;;;;;2.17;2.03;;;25.10;58.50;;;;;;5106280;28;20038;-61
2022/09/09 08:43:48;;;;;;;1.77;1.67;;;25.10;58.50;;;;;;5106352;28;20008;-62
2022/09/09 08:46:17;;;;;;;1.67;1.58;;;25.10;58.50;;;;;;5106273;28;20296;-62
2022/09/09 08:49:00;;;;;;;1.73;1.63;;;25.10;58.50;;;;;;5106217;28;20084;-62
2022/09/09 08:51:30;;;;;;;3.05;2.13;;;25.10;58.50;;;;;;5106199;28;20016;-63
2022/09/09 08:54:00;;;;;;;1.85;1.75;;;25.10;58.50;;;;;;5106172;28;20198;-62
2022/09/09 08:56:28;;;;;;;2.13;2.03;;;25.10;58.50;;;;;;5106000;28;20357;-62
2022/09/09 08:58:57;;;;;;;1.70;1.60;;;25.10;58.50;;;;;;5106035;28;20027;-62
2022/09/09 09:01:28;;;;;;;1.98;1.88;;;25.20;58.50;;;;;;5105942;28;20022;-62
2022/09/09 09:04:15;;;;;;;1.85;1.75;;;25.10;58.50;;;;;;5105936;28;20023;-62
2022/09/09 09:06:54;;;;;;;1.92;1.83;;;25.10;58.50;;;;;;5105922;28;20243;-61
2022/09/09 09:09:37;;;;;;;1.88;1.75;;;25.10;58.50;;;;;;5105853;28;20040;-62
2022/09/09 09:12:15;;;;;;;2.00;1.90;;;25.20;58.50;;;;;;5105799;28;20024;-62
2022/09/09 09:14:45;;;;;;;2.00;1.90;;;25.10;58.50;;;;;;5105693;28;20333;-62
2022/09/09 09:17:20;;;;;;;1.90;1.80;;;25.10;58.50;;;;;;5105615;28;20020;-62
2022/09/09 09:19:48;;;;;;;3.70;1.67;;;25.20;58.50;;;;;;5105905;28;20012;-62
2022/09/09 09:22:16;;;;;;;1.77;1.67;;;25.10;58.50;;;;;;5105546;28;20016;-62
2022/09/09 09:24:59;;;;;;;1.73;1.63;;;25.10;58.50;;;;;;5105527;28;20062;-62
2022/09/09 09:27:40;;;;;;;1.67;1.58;;;25.20;58.50;;;;;;5105139;28;20058;-62
2022/09/09 09:30:15;;;;;;;1.77;1.67;;;25.10;58.50;;;;;;5105438;28;20062;-62
2022/09/09 09:32:52;;;;;;;1.83;1.65;;;25.20;58.50;;;;;;5105363;28;20043;-61
2022/09/09 09:35:18;;;;;;;1.88;1.75;;;25.20;58.50;;;;;;5105334;28;20043;-62
2022/09/09 09:37:45;;;;;;;1.98;1.80;;;25.20;58.50;;;;;;5105187;28;20027;-62
2022/09/09 09:40:13;;;;;;;2.13;1.75;;;25.20;58.50;;;;;;5105220;28;20035;-62
2022/09/09 09:42:49;;;;;;;1.65;1.55;;;25.20;58.50;;;;;;5105170;28;20350;-62
2022/09/09 09:45:28;;;;;;;2.00;1.90;;;25.20;58.40;;;;;;5105163;28;20028;-62
2022/09/09 09:48:03;;;;;;;1.73;1.63;;;25.20;58.50;;;;;;5105358;28;20043;-62
2022/09/09 09:50:29;;;;;;;1.88;1.77;;;25.20;58.50;;;;;;5105027;28;20422;-61
2022/09/09 09:53:00;;;;;;;1.70;1.60;;;25.20;58.40;;;;;;5104971;28;20028;-61
2022/09/09 09:55:29;;;;;;;1.85;1.75;;;25.20;58.40;;;;;;5105004;28;20239;-62
2022/09/09 09:58:14;;;;;;;1.75;1.65;;;25.20;58.40;;;;;;5104750;28;20092;-62
2022/09/09 10:00:49;;;;;;;3.10;1.67;;;25.30;58.50;;;;;;5104893;28;20012;-62
2022/09/09 10:03:40;;;;;;;2.15;1.95;;;25.20;58.30;;;;;;5104743;28;20016;-61
2022/09/09 10:06:06;;;;;;;1.92;1.80;;;25.30;58.40;;;;;;5104761;28;20085;-63
2022/09/09 10:08:45;;;;;;;2.30;2.10;;;25.30;58.50;;;;;;5104512;28;20332;-62
2022/09/09 10:11:17;;;;;;;2.17;1.98;;;25.30;58.50;;;;;;5104619;28;20363;-60
2022/09/09 10:13:50;;;;;;;2.03;1.90;;;25.30;58.40;;;;;;5104565;28;20208;-60
2022/09/09 10:16:31;;;;;;;1.90;1.80;;;25.30;58.30;;;;;;5104409;28;20022;-62
2022/09/09 10:18:59;;;;;;;2.00;1.83;;;25.30;58.30;;;;;;5104491;28;20359;-62
2022/09/09 10:21:34;;;;;;;1.80;1.70;;;25.30;58.30;;;;;;5104386;28;20024;-62
2022/09/09 10:24:13;;;;;;;1.85;1.75;;;25.30;58.20;;;;;;5104387;28;20020;-62
2022/09/09 10:26:59;;;;;;;2.08;1.70;;;25.40;58.30;;;;;;5104371;28;20349;-62
2022/09/09 10:29:43;;;;;;;1.95;1.73;;;25.40;58.20;;;;;;5104313;28;20022;-62
2022/09/09 10:32:32;;;;;;;1.65;1.55;;;25.40;58.10;;;;;;5104558;28;20047;-62
2022/09/09 10:35:18;;;;;;;3.22;1.67;;;25.40;58.10;;;;;;5104010;28;20338;-62
2022/09/09 10:37:54;;;;;;;2.97;1.92;;;25.40;58.10;;;;;;5104115;28;20026;-62
2022/09/09 10:40:53;;;;;;;2.00;1.90;;;25.40;58.20;;;;;;5103490;28;20331;-62
2022/09/09 10:43:24;;;;;;;2.10;1.90;;;25.40;58.20;;;;;;5017266;28;20024;-61
2022/09/09 10:46:05;;;;;;;2.00;1.80;;;25.40;58.30;;;;;;5104088;28;20026;-62
2022/09/09 10:48:48;;;;;;;1.80;1.70;;;25.40;58.30;;;;;;5104041;28;20012;-62
2022/09/09 10:51:14;;;;;;;1.85;1.75;;;25.40;58.30;;;;;;5103981;28;20234;-61
2022/09/09 10:53:52;;;;;;;2.15;1.80;;;25.40;58.20;;;;;;5103863;28;20256;-62
2022/09/09 10:56:21;;;;;;;1.60;1.50;;;25.40;58.20;;;;;;5103852;28;20061;-62
2022/09/09 10:58:52;;;;;;;1.80;1.70;;;25.40;58.20;;;;;;5103798;28;20020;-61
2022/09/09 11:01:51;;;;;;;1.77;1.67;;;25.40;58.20;;;;;;5103813;28;20346;-62
2022/09/09 11:04:32;;;;;;;2.05;1.95;;;25.40;58.20;;;;;;5103717;28;20204;-62
2022/09/09 11:07:04;;;;;;;1.88;1.77;;;25.40;58.20;;;;;;5104012;28;20020;-61
2022/09/09 11:09:41;;;;;;;1.85;1.75;;;25.50;58.20;;;;;;5103369;28;20028;-62
2022/09/09 11:12:15;;;;;;;1.98;1.65;;;25.40;58.10;;;;;;5103915;28;20093;-62
2022/09/09 11:14:41;;;;;;;1.80;1.70;;;25.40;58.10;;;;;;5103694;28;20058;-62
2022/09/09 11:17:18;;;;;;;2.20;2.10;;;25.50;58.20;;;;;;5103503;28;20307;-62
2022/09/09 11:19:44;;;;;;;1.48;1.38;;;25.50;58.20;;;;;;5103652;28;20308;-62
2022/09/09 11:22:29;;;;;;;1.83;1.73;;;25.50;58.20;;;;;;5103622;28;20027;-62
2022/09/09 11:25:10;;;;;;;1.65;1.55;;;25.50;58.70;;;;;;5103611;28;20035;-61
2022/09/09 11:27:54;;;;;;;1.85;1.75;;;25.50;58.10;;;;;;5103840;28;20020;-61
2022/09/09 11:30:47;;;;;;;1.65;1.55;;;25.50;58.10;;;;;;5103517;28;20060;-62
2022/09/09 11:33:15;;;;;;;1.90;1.75;;;25.50;58.10;;;;;;5103546;28;20081;-62
2022/09/09 11:36:05;;;;;;;1.92;1.77;;;25.50;58.10;;;;;;5103496;28;20020;-61
2022/09/09 11:38:51;;;;;;;1.77;1.67;;;25.60;58.10;;;;;;5103380;28;20027;-62
2022/09/09 11:41:20;;;;;;;1.70;1.60;;;25.50;58.00;;;;;;5103743;28;20024;-60
2022/09/09 11:43:53;;;;;;;1.75;1.60;;;25.50;58.00;;;;;;5103645;28;20028;-62
2022/09/09 11:46:36;;;;;;;1.65;1.55;;;25.50;58.00;;;;;;5103387;28;20020;-61
2022/09/09 11:49:04;;;;;;;2.03;1.60;;;25.60;57.90;;;;;;5103405;28;20062;-62
2022/09/09 11:51:31;;;;;;;;;;;25.70;57.90;;;;;;5106876;28;20020;-62
2022/09/09 11:54:22;;;;;;;1.75;1.65;;;25.60;57.80;;;;;;5107357;28;19900;-62
2022/09/09 11:56:48;;;;;;;2.05;1.80;;;25.70;57.90;;;;;;5106916;28;20024;-62
2022/09/09 11:59:24;;;;;;;1.95;1.50;;;25.70;57.80;;;;;;5107186;28;20020;-61
2022/09/09 12:02:33;;;;;;;1.70;1.60;;;25.70;57.80;;;;;;5107155;28;20016;-61
2022/09/09 12:05:11;;;;;;;2.13;1.92;;;25.70;57.70;;;;;;5085279;28;20100;-62
2022/09/09 12:07:55;;;;;;;1.55;1.45;;;25.80;57.70;;;;;;5106877;28;20060;-61
2022/09/09 12:10:32;;;;;;;1.60;1.45;;;25.80;57.70;;;;;;5106991;28;20026;-62
2022/09/09 12:13:18;;;;;;;2.10;2.00;;;25.80;57.70;;;;;;5106959;28;20020;-62
2022/09/09 12:15:54;;;;;;;1.60;1.50;;;25.80;57.70;;;;;;5106816;28;20048;-62
2022/09/09 12:18:42;;;;;;;1.73;1.63;;;25.80;57.70;;;;;;5106794;28;20024;-62
2022/09/09 12:21:43;;;;;;;1.83;1.73;;;25.90;57.70;;;;;;5107067;28;20085;-62
2022/09/09 12:24:11;;;;;;;1.88;1.77;;;25.80;57.70;;;;;;5021463;28;20093;-61
2022/09/09 12:27:14;;;;;;;1.85;1.75;;;25.80;57.80;;;;;;5106658;28;20091;-61
2022/09/09 12:29:54;;;;;;;1.63;1.52;;;25.80;57.80;;;;;;5106842;28;20024;-62
2022/09/09 12:32:25;;;;;;;1.70;1.60;;;25.80;57.70;;;;;;5106605;28;20016;-62
2022/09/09 12:34:55;;;;;;;1.80;1.70;;;25.90;57.70;;;;;;5106507;28;20030;-61
2022/09/09 12:37:32;;;;;;;1.95;1.75;;;25.90;57.50;;;;;;5106354;28;20047;-61
2022/09/09 12:40:02;;;;;;;1.85;1.75;;;26.00;57.40;;;;;;5106466;28;20043;-62
2022/09/09 12:42:28;;;;;;;1.70;1.60;;;26.00;57.30;;;;;;5106294;28;20038;-62
2022/09/09 12:44:57;;;;;;;1.70;1.60;;;26.00;57.40;;;;;;5106287;28;20320;-63
2022/09/09 12:47:42;;;;;;;1.38;1.30;;;26.00;57.30;;;;;;5106513;28;20054;-60
2022/09/09 12:50:32;;;;;;;1.52;1.42;;;26.00;57.40;;;;;;5106214;28;20083;-62
2022/09/09 12:53:01;;;;;;;1.83;1.48;;;26.00;57.40;;;;;;5106488;28;20082;-62
2022/09/09 12:55:34;;;;;;;1.75;1.65;;;26.00;57.40;;;;;;5106043;28;20020;-63
2022/09/09 12:58:04;;;;;;;1.52;1.42;;;26.10;57.40;;;;;;5105988;28;20023;-63
2022/09/09 13:00:31;;;;;;;1.48;1.38;;;26.10;57.30;;;;;;5106028;28;20016;-62
2022/09/09 13:02:59;;;;;;;2.17;1.98;;;26.10;57.10;;;;;;5105220;28;20338;-61
2022/09/09 13:05:29;;;;;;;1.30;1.30;;;26.10;57.10;;;;;;5105914;28;20026;-62
2022/09/09 13:08:06;;;;;;;1.80;1.70;;;26.20;56.90;;;;;;5105800;28;20048;-62
2022/09/09 13:10:40;;;;;;;1.57;1.47;;;26.40;56.70;;;;;;5105850;28;20238;-62
2022/09/09 13:13:20;;;;;;;1.50;1.40;;;26.40;56.50;;;;;;5105802;28;20240;-61
2022/09/09 13:15:58;;;;;;;1.65;1.55;;;26.50;56.40;;;;;;5105734;28;20031;-62
2022/09/09 13:18:35;;;;;;;1.55;1.45;;;26.50;56.20;;;;;;5105853;28;20016;-63